Time;durP1;ratioP1;P1;durP2;ratioP2;P2;SDS_P1;SDS_P2;PMS_P1;PMS_P2;Temp;Humidity;BMP_temperature;BMP_pressure;BME280_temperature;BME280_humidity;BME280_pressure;Samples;Min_cycle;Max_cycle;Signal;HPM_P1;HPM_P2
2023/05/14 15:59:50;;;;;;;;;;;;;;;;;;;;;
2023/05/14 16:04:34;;;;;;;;;22.33;19.33;;;;;;;;1942750;28;3577400;-71
2023/05/14 16:05:47;;;;;;;;;23.67;20.00;;;;;;;;1958638;28;3574223;-71
2023/05/14 16:07:03;;;;;;;;;21.67;19.00;;;;;;;;1944837;28;3567278;-70
2023/05/14 16:08:14;;;;;;;;;19.33;17.33;;;;;;;;1944166;28;3560693;-70
2023/05/14 16:09:27;;;;;;;;;22.63;18.75;;;;;;;;1965750;28;3588774;-71
2023/05/14 16:10:39;;;;;;;;;25.00;23.67;;;;;;;;1965348;28;3581491;-70
2023/05/14 16:11:52;;;;;;;;;24.57;22.14;;;;;;;;1963595;28;3581962;-71
2023/05/14 16:13:04;;;;;;;;;23.40;21.00;;;;;;;;1970831;28;3573169;-71
2023/05/14 16:14:17;;;;;;;;;21.57;20.00;;;;;;;;1986209;28;3577308;-71
2023/05/14 16:15:28;;;;;;;;;22.67;21.00;;;;;;;;1945171;28;3580417;-72
2023/05/14 16:16:40;;;;;;;;;22.00;22.00;;;;;;;;1960273;28;3562888;-71
2023/05/14 16:17:53;;;;;;;;;21.29;20.57;;;;;;;;1957814;28;3580425;-71
2023/05/14 16:19:04;;;;;;;;;20.20;19.00;;;;;;;;1952456;28;2835775;-71
2023/05/14 16:20:17;;;;;;;;;22.29;21.14;;;;;;;;1993471;28;3577377;-71
2023/05/14 16:21:30;;;;;;;;;25.40;20.20;;;;;;;;1970161;28;3591871;-70
2023/05/14 16:22:42;;;;;;;;;21.67;18.00;;;;;;;;1963596;28;3571111;-71
2023/05/14 16:23:53;;;;;;;;;20.40;19.20;;;;;;;;1965327;28;3575691;-71
2023/05/14 16:25:04;;;;;;;;;24.80;20.60;;;;;;;;1951890;28;2842017;-71
2023/05/14 16:26:17;;;;;;;;;23.71;23.43;;;;;;;;1981395;28;3584678;-71
2023/05/14 16:27:28;;;;;;;;;24.80;23.60;;;;;;;;1948939;28;2848296;-71
2023/05/14 16:28:42;;;;;;;;;24.13;20.50;;;;;;;;1987487;28;3578370;-71
2023/05/14 16:29:53;;;;;;;;;18.67;17.67;;;;;;;;1961880;28;3571067;-71
2023/05/14 16:31:06;;;;;;;;;24.29;22.14;;;;;;;;1963341;28;3576287;-71
2023/05/14 16:32:20;;;;;;;;;22.86;19.43;;;;;;;;1959276;28;3579479;-71
2023/05/14 16:33:31;;;;;;;;;21.33;20.33;;;;;;;;1941117;28;3571121;-71
2023/05/14 16:34:48;;;;;;;;;23.00;19.60;;;;;;;;1954832;28;2842026;-71
2023/05/14 16:35:59;;;;;;;;;23.00;21.00;;;;;;;;1960929;28;3585672;-71
2023/05/14 16:37:12;;;;;;;;;23.20;21.80;;;;;;;;1967406;28;3566888;-71
2023/05/14 16:38:23;;;;;;;;;21.33;18.00;;;;;;;;1941699;28;3572544;-71
2023/05/14 16:39:34;;;;;;;;;20.20;19.00;;;;;;;;1946863;28;2843066;-71
2023/05/14 16:40:48;;;;;;;;;24.88;21.38;;;;;;;;1995429;28;3579526;-71
2023/05/14 16:41:59;;;;;;;;;24.33;22.00;;;;;;;;1968412;28;2849204;-71
2023/05/14 16:43:10;;;;;;;;;24.33;22.67;;;;;;;;1966442;28;3583617;-70
2023/05/14 16:44:23;;;;;;;;;25.57;21.14;;;;;;;;1968435;28;3570414;-70
2023/05/14 16:45:36;;;;;;;;;23.40;21.80;;;;;;;;1951721;28;2843093;-72
2023/05/14 16:46:47;;;;;;;;;24.33;20.67;;;;;;;;1969788;28;2839829;-71
2023/05/14 16:47:59;;;;;;;;;23.00;20.33;;;;;;;;1965848;28;3583602;-71
2023/05/14 16:49:11;;;;;;;;;18.67;17.33;;;;;;;;1945073;28;3573169;-71
2023/05/14 16:50:22;;;;;;;;;22.40;18.20;;;;;;;;1949347;28;2842007;-71
2023/05/14 16:51:36;;;;;;;;;17.57;15.71;;;;;;;;1989234;28;3554774;-71
2023/05/14 16:52:46;;;;;;;;;20.50;19.00;;;;;;;;1947057;28;2828830;-71
2023/05/14 16:53:59;;;;;;;;;18.71;18.29;;;;;;;;1968647;28;3577327;-71
2023/05/14 16:55:10;;;;;;;;;19.00;18.40;;;;;;;;1951100;28;2837904;-71
2023/05/14 16:56:21;;;;;;;;;21.60;20.40;;;;;;;;1974671;28;2833687;-71
2023/05/14 16:57:33;;;;;;;;;12.75;11.25;;;;;;;;1994104;28;1822222;-71
2023/05/14 16:58:44;;;;;;;;;19.33;17.00;;;;;;;;1964529;28;3567749;-71
2023/05/14 16:59:55;;;;;;;;;20.60;18.00;;;;;;;;1950571;28;2838900;-71
2023/05/14 17:01:07;;;;;;;;;21.67;19.33;;;;;;;;1964264;28;3575254;-72
2023/05/14 17:02:18;;;;;;;;;17.33;17.33;;;;;;;;1945320;28;3574779;-72
2023/05/14 17:03:31;;;;;;;;;17.29;16.14;;;;;;;;1964488;28;3554462;-72
2023/05/14 17:04:43;;;;;;;;;23.80;19.00;;;;;;;;1990593;28;3568959;-72
2023/05/14 17:05:54;;;;;;;;;23.20;20.00;;;;;;;;1973585;28;2849315;-72
2023/05/14 17:07:06;;;;;;;;;21.60;19.60;;;;;;;;1987874;28;3566895;-72
2023/05/14 17:08:18;;;;;;;;;21.00;19.67;;;;;;;;1978745;28;3571086;-72
2023/05/14 17:09:30;;;;;;;;;20.20;17.00;;;;;;;;1970035;28;3564822;-71
2023/05/14 17:10:41;;;;;;;;;18.80;17.00;;;;;;;;1969782;28;2836815;-72
2023/05/14 17:11:52;;;;;;;;;19.00;17.40;;;;;;;;1987849;28;3553442;-71
2023/05/14 17:13:05;;;;;;;;;11.83;10.33;;;;;;;;2009228;28;2769004;-71
2023/05/14 17:14:16;;;;;;;;;18.00;16.00;;;;;;;;1976724;28;2832365;-71
2023/05/14 17:15:28;;;;;;;;;17.67;16.00;;;;;;;;1970627;28;3553371;-72
2023/05/14 17:16:41;;;;;;;;;20.00;17.20;;;;;;;;1965026;28;3566249;-72
2023/05/14 17:17:51;;;;;;;;;15.50;14.50;;;;;;;;1970243;28;2799206;-72
2023/05/14 17:19:03;;;;;;;;;18.40;15.00;;;;;;;;1974465;28;3542958;-72
2023/05/14 17:20:15;;;;;;;;;16.60;15.00;;;;;;;;1982332;28;3541998;-72
2023/05/14 17:21:27;;;;;;;;;17.00;15.80;;;;;;;;1989493;28;3551282;-72
2023/05/14 17:22:38;;;;;;;;;25.60;19.00;;;;;;;;1973918;28;2846693;-71
2023/05/14 17:23:49;;;;;;;;;18.33;16.67;;;;;;;;1964714;28;3562746;-73
2023/05/14 17:25:00;;;;;;;;;18.00;18.00;;;;;;;;1972329;28;2835838;-73
2023/05/14 17:26:11;;;;;;;;;16.40;16.40;;;;;;;;1969966;28;2829513;-73
2023/05/14 17:27:22;;;;;;;;;20.40;18.80;;;;;;;;1973311;28;2834781;-73
2023/05/14 17:28:33;;;;;;;;;20.67;17.33;;;;;;;;1968433;28;3566975;-73
2023/05/14 17:29:45;;;;;;;;;24.00;17.40;;;;;;;;1966252;28;3585689;-73
2023/05/14 17:30:57;;;;;;;;;18.60;15.20;;;;;;;;1973580;28;3549597;-73
2023/05/14 17:32:09;;;;;;;;;16.60;14.60;;;;;;;;1996274;28;3539901;-73
2023/05/14 17:33:20;;;;;;;;;18.00;16.60;;;;;;;;1985401;28;2834745;-73
2023/05/14 17:34:30;;;;;;;;;16.00;16.00;;;;;;;;1978746;28;2826678;-73
2023/05/14 17:35:44;;;;;;;;;24.60;20.20;;;;;;;;1993733;28;3589848;-73
2023/05/14 17:36:55;;;;;;;;;15.00;15.00;;;;;;;;1949562;28;2809635;-73
2023/05/14 17:38:06;;;;;;;;;20.00;19.00;;;;;;;;1970102;28;3573221;-72
2023/05/14 17:39:17;;;;;;;;;19.00;17.40;;;;;;;;1975768;28;2831536;-73
2023/05/14 17:40:30;;;;;;;;;20.43;18.29;;;;;;;;1989923;28;3581535;-73
2023/05/14 17:41:42;;;;;;;;;15.60;15.60;;;;;;;;1973556;28;3544113;-72
2023/05/14 17:42:53;;;;;;;;;20.20;19.00;;;;;;;;1973422;28;2844096;-73
2023/05/14 17:44:06;;;;;;;;;23.43;19.43;;;;;;;;1986807;28;3579491;-73
2023/05/14 17:45:19;;;;;;;;;22.00;18.00;;;;;;;;1950678;28;3565889;-73
2023/05/14 17:46:29;;;;;;;;;20.00;18.50;;;;;;;;1946989;28;2835683;-73
2023/05/14 17:47:42;;;;;;;;;18.29;16.57;;;;;;;;1967466;28;3579821;-73
2023/05/14 17:48:53;;;;;;;;;19.20;17.80;;;;;;;;1952612;28;2830638;-73
2023/05/14 17:50:04;;;;;;;;;18.50;18.00;;;;;;;;1971636;28;2825306;-74
2023/05/14 17:51:16;;;;;;;;;17.00;15.20;;;;;;;;1962424;28;3548159;-73
2023/05/14 17:52:26;;;;;;;;;20.60;18.20;;;;;;;;1974184;28;2832625;-73
2023/05/14 17:53:37;;;;;;;;;23.60;17.80;;;;;;;;1975799;28;2842068;-73
2023/05/14 17:54:49;;;;;;;;;19.20;17.80;;;;;;;;1974187;28;3563807;-73
2023/05/14 17:56:01;;;;;;;;;21.33;18.67;;;;;;;;1978910;28;3573173;-73
2023/05/14 17:57:14;;;;;;;;;21.57;19.71;;;;;;;;1963059;28;3579416;-73
2023/05/14 17:58:26;;;;;;;;;19.00;19.00;;;;;;;;1953183;28;3573241;-74
2023/05/14 17:59:37;;;;;;;;;18.00;17.67;;;;;;;;1973682;28;3566981;-73
2023/05/14 18:00:49;;;;;;;;;20.00;19.60;;;;;;;;1968576;28;3570096;-73
2023/05/14 18:02:00;;;;;;;;;18.00;17.00;;;;;;;;1952599;28;2831572;-73
2023/05/14 18:03:12;;;;;;;;;18.50;17.00;;;;;;;;1969933;28;2506565;-72
2023/05/14 18:04:23;;;;;;;;;16.67;16.00;;;;;;;;1947830;28;2821442;-72
2023/05/14 18:05:35;;;;;;;;;19.00;17.00;;;;;;;;1966765;28;3567278;-73
2023/05/14 18:06:47;;;;;;;;;21.40;18.20;;;;;;;;1964143;28;3569502;-73
2023/05/14 18:07:59;;;;;;;;;18.20;17.80;;;;;;;;1990290;28;3571069;-72
2023/05/14 18:09:10;;;;;;;;;16.00;15.67;;;;;;;;1953207;28;3555961;-73
2023/05/14 18:10:21;;;;;;;;;23.40;18.60;;;;;;;;1950792;28;2842024;-73
2023/05/14 18:11:34;;;;;;;;;17.60;16.20;;;;;;;;1993320;28;3557528;-73
2023/05/14 18:12:45;;;;;;;;;14.60;13.40;;;;;;;;1972124;28;3521101;-73
2023/05/14 18:13:57;;;;;;;;;20.60;17.60;;;;;;;;1991292;28;3562785;-73
2023/05/14 18:15:08;;;;;;;;;24.40;22.00;;;;;;;;1977091;28;2845512;-72
2023/05/14 18:16:18;;;;;;;;;16.50;16.50;;;;;;;;1967927;28;2822676;-73
2023/05/14 18:17:30;;;;;;;;;19.40;15.40;;;;;;;;1973924;28;3554411;-73
2023/05/14 18:18:41;;;;;;;;;19.60;17.00;;;;;;;;1976079;28;2837858;-73
2023/05/14 18:19:52;;;;;;;;;17.00;16.40;;;;;;;;1975024;28;2831592;-73
2023/05/14 18:21:03;;;;;;;;;22.40;16.60;;;;;;;;1976195;28;2839969;-73
2023/05/14 18:22:14;;;;;;;;;17.00;14.67;;;;;;;;1969383;28;3537810;-73
2023/05/14 18:23:26;;;;;;;;;17.60;16.40;;;;;;;;1991107;28;3547175;-73
2023/05/14 18:24:39;;;;;;;;;17.43;14.43;;;;;;;;1989910;28;3535686;-73
2023/05/14 18:25:50;;;;;;;;;24.00;21.60;;;;;;;;1953271;28;2838865;-72
2023/05/14 18:27:01;;;;;;;;;18.40;16.40;;;;;;;;1972449;28;3549264;-72
2023/05/14 18:28:12;;;;;;;;;19.20;17.40;;;;;;;;1976792;28;2829519;-73
2023/05/14 18:29:23;;;;;;;;;15.00;13.50;;;;;;;;1971119;28;2806490;-73
2023/05/14 18:30:33;;;;;;;;;19.80;19.00;;;;;;;;1952290;28;2839941;-73
2023/05/14 18:31:45;;;;;;;;;21.33;19.00;;;;;;;;1969557;28;3583542;-73
2023/05/14 18:32:58;;;;;;;;;20.86;18.43;;;;;;;;1968975;28;3573174;-73
2023/05/14 18:34:10;;;;;;;;;23.67;19.00;;;;;;;;1950624;28;3573214;-72
2023/05/14 18:35:22;;;;;;;;;24.33;20.33;;;;;;;;1949185;28;3580480;-72
2023/05/14 18:36:34;;;;;;;;;20.40;20.00;;;;;;;;1970696;28;3583584;-72
2023/05/14 18:37:46;;;;;;;;;19.60;19.60;;;;;;;;1963258;28;3572225;-73
2023/05/14 18:38:57;;;;;;;;;20.40;16.80;;;;;;;;1986519;28;3560688;-73
2023/05/14 18:40:13;;;;;;;;;16.71;16.00;;;;;;;;1991547;28;3534692;-73
2023/05/14 18:41:23;;;;;;;;;15.00;15.00;;;;;;;;1967877;28;2803417;-73
2023/05/14 18:42:34;;;;;;;;;21.60;20.20;;;;;;;;1948231;28;2829461;-73
2023/05/14 18:43:46;;;;;;;;;17.80;17.80;;;;;;;;1996763;28;3573681;-73
2023/05/14 18:44:58;;;;;;;;;17.80;17.80;;;;;;;;1988740;28;3562769;-73
2023/05/14 18:46:11;;;;;;;;;26.20;20.00;;;;;;;;1995294;28;3594041;-72
2023/05/14 18:47:22;;;;;;;;;19.00;17.33;;;;;;;;1942294;28;3568995;-73
2023/05/14 18:48:34;;;;;;;;;19.60;17.00;;;;;;;;1971192;28;3566916;-73
2023/05/14 18:49:46;;;;;;;;;18.80;17.80;;;;;;;;1971090;28;3567938;-73
2023/05/14 18:50:59;;;;;;;;;20.71;18.14;;;;;;;;1966367;28;3560709;-73
2023/05/14 18:52:11;;;;;;;;;17.00;15.33;;;;;;;;1943933;28;3541965;-73
2023/05/14 18:53:23;;;;;;;;;21.40;19.80;;;;;;;;1987249;28;3582503;-73
2023/05/14 18:54:35;;;;;;;;;22.71;19.57;;;;;;;;1967086;28;3580440;-73
2023/05/14 18:55:47;;;;;;;;;18.80;18.00;;;;;;;;1969132;28;3564829;-73
2023/05/14 18:57:00;;;;;;;;;19.60;18.80;;;;;;;;1992774;28;3575248;-73
2023/05/14 18:58:13;;;;;;;;;19.60;17.00;;;;;;;;1960453;28;3558549;-73
2023/05/14 18:59:24;;;;;;;;;19.33;17.67;;;;;;;;1964366;28;3573262;-73
2023/05/14 19:00:35;;;;;;;;;21.20;21.20;;;;;;;;1951255;28;2843537;-73
2023/05/14 19:01:46;;;;;;;;;24.00;19.40;;;;;;;;1976124;28;2845185;-73
2023/05/14 19:02:57;;;;;;;;;20.00;19.33;;;;;;;;1970212;28;3584671;-73
2023/05/14 19:04:10;;;;;;;;;20.14;19.00;;;;;;;;1967883;28;3587728;-73
2023/05/14 19:05:21;;;;;;;;;22.00;19.20;;;;;;;;1952345;28;2838916;-72
2023/05/14 19:06:32;;;;;;;;;20.00;19.40;;;;;;;;1972529;28;3570040;-73
2023/05/14 19:07:46;;;;;;;;;22.20;17.60;;;;;;;;1967472;28;3577354;-73
2023/05/14 19:08:58;;;;;;;;;19.33;17.00;;;;;;;;1943187;28;3559676;-73
2023/05/14 19:10:10;;;;;;;;;19.86;19.00;;;;;;;;1965756;28;3580484;-73
2023/05/14 19:11:23;;;;;;;;;20.14;20.14;;;;;;;;1965206;28;3585644;-73
2023/05/14 19:12:34;;;;;;;;;20.20;19.40;;;;;;;;1949944;28;2841021;-73
2023/05/14 19:13:48;;;;;;;;;18.60;18.60;;;;;;;;1993142;28;3573166;-73
2023/05/14 19:14:59;;;;;;;;;24.00;19.00;;;;;;;;1964749;28;3594545;-73
2023/05/14 19:16:12;;;;;;;;;21.86;20.43;;;;;;;;1967959;28;3575583;-73
2023/05/14 19:17:23;;;;;;;;;20.00;18.60;;;;;;;;1949286;28;2834206;-73
2023/05/14 19:18:35;;;;;;;;;23.33;21.67;;;;;;;;1984755;28;3570017;-73
2023/05/14 19:19:46;;;;;;;;;21.40;17.40;;;;;;;;1953556;28;2844112;-73
2023/05/14 19:20:57;;;;;;;;;16.20;15.60;;;;;;;;1971363;28;3551268;-73
2023/05/14 19:22:09;;;;;;;;;19.20;19.20;;;;;;;;1985956;28;3579391;-73
2023/05/14 19:23:22;;;;;;;;;19.86;19.00;;;;;;;;1968020;28;3573182;-73
2023/05/14 19:24:33;;;;;;;;;23.00;20.60;;;;;;;;1954977;28;2838882;-73
2023/05/14 19:25:43;;;;;;;;;21.00;18.50;;;;;;;;1971065;28;2848177;-73
2023/05/14 19:26:55;;;;;;;;;21.80;17.80;;;;;;;;1969773;28;3574204;-73
2023/05/14 19:28:06;;;;;;;;;23.20;21.80;;;;;;;;1948759;28;2837873;-73
2023/05/14 19:29:19;;;;;;;;;22.14;19.14;;;;;;;;1988686;28;3575253;-73
2023/05/14 19:30:31;;;;;;;;;22.80;21.80;;;;;;;;1969297;28;3577295;-73
2023/05/14 19:31:42;;;;;;;;;22.00;20.80;;;;;;;;1976952;28;2841040;-73
2023/05/14 19:32:53;;;;;;;;;20.60;18.20;;;;;;;;1974146;28;3578368;-73
2023/05/14 19:34:05;;;;;;;;;22.00;20.40;;;;;;;;1970121;28;2826320;-73
2023/05/14 19:35:16;;;;;;;;;18.00;17.00;;;;;;;;1965181;28;3559689;-73
2023/05/14 19:36:27;;;;;;;;;25.20;20.60;;;;;;;;1953187;28;2836697;-73
2023/05/14 19:37:38;;;;;;;;;22.00;19.67;;;;;;;;1968074;28;3577368;-73
2023/05/14 19:38:51;;;;;;;;;23.57;22.00;;;;;;;;1968022;28;3583581;-73
2023/05/14 19:40:02;;;;;;;;;24.20;21.60;;;;;;;;1951950;28;2845173;-72
2023/05/14 19:41:13;;;;;;;;;19.00;19.00;;;;;;;;1975266;28;2838812;-73
2023/05/14 19:42:25;;;;;;;;;25.00;21.33;;;;;;;;1963863;28;3577395;-73
2023/05/14 19:43:37;;;;;;;;;25.40;22.60;;;;;;;;1970305;28;3585653;-73
2023/05/14 19:44:49;;;;;;;;;22.00;18.20;;;;;;;;1964867;28;3559624;-73
2023/05/14 19:46:00;;;;;;;;;16.40;14.00;;;;;;;;1971733;28;3537204;-73
2023/05/14 19:47:13;;;;;;;;;22.20;18.80;;;;;;;;1993076;28;3573139;-73
2023/05/14 19:48:24;;;;;;;;;21.00;17.67;;;;;;;;1958849;28;3565991;-73
2023/05/14 19:49:36;;;;;;;;;18.60;17.60;;;;;;;;1969768;28;3567958;-73
2023/05/14 19:50:47;;;;;;;;;21.20;20.40;;;;;;;;1952973;28;2847215;-73
2023/05/14 19:51:58;;;;;;;;;21.00;20.00;;;;;;;;1974735;28;3567302;-73
2023/05/14 19:53:10;;;;;;;;;17.00;15.60;;;;;;;;1974766;28;2829481;-73
2023/05/14 19:54:21;;;;;;;;;24.33;22.00;;;;;;;;1965377;28;3577315;-73
2023/05/14 19:55:33;;;;;;;;;23.80;22.20;;;;;;;;1968892;28;3578370;-73
2023/05/14 19:56:45;;;;;;;;;20.60;19.40;;;;;;;;1970508;28;3577299;-73
2023/05/14 19:57:57;;;;;;;;;22.20;20.60;;;;;;;;1970853;28;3564814;-73
2023/05/14 19:59:10;;;;;;;;;23.00;21.14;;;;;;;;1989432;28;3587358;-73
2023/05/14 20:00:23;;;;;;;;;22.00;20.00;;;;;;;;1962449;28;3586809;-73
2023/05/14 20:01:33;;;;;;;;;17.00;16.60;;;;;;;;1948758;28;2823268;-73
2023/05/14 20:02:44;;;;;;;;;21.80;19.80;;;;;;;;1976262;28;2840992;-73
2023/05/14 20:03:55;;;;;;;;;17.00;16.00;;;;;;;;1969547;28;2824236;-73
2023/05/14 20:05:08;;;;;;;;;23.40;22.00;;;;;;;;1954423;28;2844105;-72
2023/05/14 20:06:19;;;;;;;;;23.67;22.33;;;;;;;;1965978;28;3579395;-73
2023/05/14 20:07:30;;;;;;;;;23.20;18.20;;;;;;;;1954336;28;2833087;-73
2023/05/14 20:08:44;;;;;;;;;23.00;21.00;;;;;;;;1967033;28;3580441;-73
2023/05/14 20:09:55;;;;;;;;;16.33;16.00;;;;;;;;1936916;28;3562806;-73
2023/05/14 20:11:06;;;;;;;;;23.80;22.80;;;;;;;;1975037;28;2846196;-73
2023/05/14 20:12:17;;;;;;;;;24.00;21.67;;;;;;;;1969742;28;3575225;-73
2023/05/14 20:13:30;;;;;;;;;25.40;22.20;;;;;;;;1953585;28;2838674;-73
2023/05/14 20:14:42;;;;;;;;;20.33;20.00;;;;;;;;1966002;28;3578369;-73
2023/05/14 20:15:53;;;;;;;;;25.00;22.67;;;;;;;;1949562;28;3577392;-73
2023/05/14 20:17:05;;;;;;;;;23.80;21.00;;;;;;;;1947992;28;2833615;-73
2023/05/14 20:18:16;;;;;;;;;22.67;20.33;;;;;;;;1973115;28;3580441;-73
2023/05/14 20:19:29;;;;;;;;;22.14;19.14;;;;;;;;1957448;28;3575214;-73
2023/05/14 20:20:41;;;;;;;;;22.67;21.67;;;;;;;;1957098;28;3579371;-73
2023/05/14 20:21:55;;;;;;;;;25.43;22.43;;;;;;;;1962078;28;3579435;-73
2023/05/14 20:23:06;;;;;;;;;21.00;20.00;;;;;;;;1943826;28;2838815;-73
2023/05/14 20:24:17;;;;;;;;;22.67;20.33;;;;;;;;1968269;28;3575349;-73
2023/05/14 20:25:28;;;;;;;;;23.60;22.20;;;;;;;;1950827;28;2845133;-73
2023/05/14 20:26:39;;;;;;;;;25.00;22.67;;;;;;;;1968646;28;3580469;-73
2023/05/14 20:27:51;;;;;;;;;25.00;23.80;;;;;;;;1949668;28;2839950;-73
2023/05/14 20:29:02;;;;;;;;;22.67;21.67;;;;;;;;1970928;28;3581518;-73
2023/05/14 20:30:13;;;;;;;;;23.20;21.80;;;;;;;;1951720;28;2840977;-73
2023/05/14 20:31:24;;;;;;;;;22.60;20.60;;;;;;;;1967499;28;2843048;-73
2023/05/14 20:32:36;;;;;;;;;26.60;21.60;;;;;;;;1995047;28;3579427;-73
2023/05/14 20:33:47;;;;;;;;;21.40;17.40;;;;;;;;1971431;28;2837830;-73
2023/05/14 20:35:00;;;;;;;;;20.67;20.67;;;;;;;;1974436;28;3576294;-73
2023/05/14 20:36:12;;;;;;;;;20.00;20.00;;;;;;;;1940755;28;3569034;-73
2023/05/14 20:37:25;;;;;;;;;26.57;22.43;;;;;;;;1958026;28;3586710;-73
2023/05/14 20:38:39;;;;;;;;;28.50;24.63;;;;;;;;1962484;28;3592971;-73
2023/05/14 20:39:52;;;;;;;;;6.33;5.33;;;;;;;;1995609;28;2748211;-73
2023/05/14 20:41:03;;;;;;;;;20.67;20.00;;;;;;;;1943955;28;3578417;-72
2023/05/14 20:42:16;;;;;;;;;25.71;23.14;;;;;;;;1967896;28;3582501;-72
2023/05/14 20:43:27;;;;;;;;;23.40;20.80;;;;;;;;1952531;28;2850361;-72
2023/05/14 20:44:39;;;;;;;;;23.00;22.00;;;;;;;;1969820;28;3583606;-71
2023/05/14 20:45:50;;;;;;;;;22.40;20.20;;;;;;;;1972407;28;3570052;-71
2023/05/14 20:47:03;;;;;;;;;24.40;22.80;;;;;;;;1968007;28;3577308;-71
2023/05/14 20:48:15;;;;;;;;;22.20;21.40;;;;;;;;1960104;28;3579425;-71
2023/05/14 20:49:26;;;;;;;;;27.00;23.80;;;;;;;;1965128;28;3573239;-71
2023/05/14 20:50:37;;;;;;;;;21.80;17.40;;;;;;;;1951284;28;2829440;-72
2023/05/14 20:51:50;;;;;;;;;23.86;21.86;;;;;;;;1987302;28;3577375;-71
2023/05/14 20:53:03;;;;;;;;;23.00;22.60;;;;;;;;1966459;28;3578373;-72
2023/05/14 20:54:14;;;;;;;;;26.00;23.00;;;;;;;;1970750;28;3582563;-72
2023/05/14 20:55:26;;;;;;;;;23.40;21.80;;;;;;;;1972302;28;3584615;-72
2023/05/14 20:56:37;;;;;;;;;24.00;22.40;;;;;;;;1950792;28;2846671;-72
2023/05/14 20:57:49;;;;;;;;;23.40;21.80;;;;;;;;1991482;28;3571062;-72
2023/05/14 20:59:00;;;;;;;;;23.80;21.80;;;;;;;;1972890;28;2840988;-71
2023/05/14 21:00:12;;;;;;;;;20.20;20.20;;;;;;;;1989440;28;3587769;-72
2023/05/14 21:01:24;;;;;;;;;23.67;22.00;;;;;;;;1978588;28;3578385;-72
2023/05/14 21:02:36;;;;;;;;;23.14;22.14;;;;;;;;1959560;28;3582509;-72
2023/05/14 21:03:48;;;;;;;;;20.60;20.60;;;;;;;;1967901;28;3562737;-71
2023/05/14 21:05:02;;;;;;;;;28.50;25.38;;;;;;;;1986662;28;3591919;-72
2023/05/14 21:06:13;;;;;;;;;20.67;19.67;;;;;;;;1966771;28;3569354;-72
2023/05/14 21:07:27;;;;;;;;;26.38;25.88;;;;;;;;1963811;28;3594363;-72
2023/05/14 21:08:39;;;;;;;;;28.33;24.00;;;;;;;;1963825;28;3600310;-72
2023/05/14 21:09:51;;;;;;;;;26.67;24.33;;;;;;;;1951302;28;3600291;-72
2023/05/14 21:11:02;;;;;;;;;27.33;27.33;;;;;;;;1945983;28;3581522;-72
2023/05/14 21:12:17;;;;;;;;;30.63;25.13;;;;;;;;1960071;28;3595048;-72
2023/05/14 21:13:28;;;;;;;;;24.33;21.00;;;;;;;;1964637;28;3587250;-72
2023/05/14 21:14:40;;;;;;;;;20.60;18.20;;;;;;;;1967715;28;3578377;-72
2023/05/14 21:15:52;;;;;;;;;28.00;24.00;;;;;;;;1948278;28;3569047;-72
2023/05/14 21:17:06;;;;;;;;;25.13;23.75;;;;;;;;1965405;28;3589819;-72
2023/05/14 21:18:16;;;;;;;;;27.00;21.50;;;;;;;;1962595;28;2850297;-72
2023/05/14 21:19:27;;;;;;;;;25.60;22.00;;;;;;;;1951629;28;2833747;-72
2023/05/14 21:20:38;;;;;;;;;29.80;25.00;;;;;;;;1974624;28;3595031;-72
2023/05/14 21:21:50;;;;;;;;;27.67;24.00;;;;;;;;1951940;28;3579448;-72
2023/05/14 21:23:02;;;;;;;;;29.20;26.80;;;;;;;;1970607;28;3592957;-72
2023/05/14 21:24:16;;;;;;;;;29.63;25.88;;;;;;;;1967531;28;3596068;-72
2023/05/14 21:25:27;;;;;;;;;30.00;25.00;;;;;;;;1964795;28;3608584;-72
2023/05/14 21:26:41;;;;;;;;;27.75;23.75;;;;;;;;1963026;28;3594030;-72
2023/05/14 21:27:52;;;;;;;;;29.67;27.33;;;;;;;;1958637;28;3606019;-72
2023/05/14 21:29:04;;;;;;;;;26.67;23.33;;;;;;;;1958147;28;3591969;-72
2023/05/14 21:30:17;;;;;;;;;26.14;25.86;;;;;;;;1963064;28;3582528;-72
2023/05/14 21:31:28;;;;;;;;;29.20;28.00;;;;;;;;1948168;28;2856661;-72
2023/05/14 21:32:40;;;;;;;;;27.40;26.60;;;;;;;;1987838;28;3591919;-72
2023/05/14 21:33:52;;;;;;;;;30.40;26.40;;;;;;;;1989825;28;3605448;-72
2023/05/14 21:35:04;;;;;;;;;26.80;24.00;;;;;;;;1970253;28;3587767;-72
2023/05/14 21:36:16;;;;;;;;;27.67;27.67;;;;;;;;1953203;28;3593017;-72
2023/05/14 21:37:28;;;;;;;;;26.00;22.29;;;;;;;;1960900;28;3593342;-72
2023/05/14 21:38:40;;;;;;;;;29.00;26.80;;;;;;;;1968166;28;3596086;-72
2023/05/14 21:39:54;;;;;;;;;27.63;24.63;;;;;;;;1988097;28;3594005;-72
2023/05/14 21:41:04;;;;;;;;;26.50;25.50;;;;;;;;1965925;28;2850274;-72
2023/05/14 21:42:19;;;;;;;;;30.00;28.20;;;;;;;;1969616;28;3602347;-72
2023/05/14 21:43:30;;;;;;;;;27.50;24.50;;;;;;;;1967816;28;2852376;-72
2023/05/14 21:44:43;;;;;;;;;30.50;26.38;;;;;;;;1965583;28;3604417;-72
2023/05/14 21:45:54;;;;;;;;;29.67;27.67;;;;;;;;1960742;28;3579423;-72
2023/05/14 21:47:08;;;;;;;;;29.88;26.63;;;;;;;;1962320;28;3593981;-72
2023/05/14 21:48:20;;;;;;;;;25.67;24.67;;;;;;;;1961858;28;3596137;-72
2023/05/14 21:49:30;;;;;;;;;28.50;26.00;;;;;;;;1950214;28;2506501;-73
2023/05/14 21:50:41;;;;;;;;;28.20;25.20;;;;;;;;1951537;28;2842446;-73
2023/05/14 21:51:53;;;;;;;;;24.60;24.00;;;;;;;;1975486;28;3576262;-73
2023/05/14 21:53:05;;;;;;;;;29.00;27.00;;;;;;;;1954820;28;3591950;-73
2023/05/14 21:54:17;;;;;;;;;27.60;26.40;;;;;;;;1971784;28;3586683;-73
2023/05/14 21:55:29;;;;;;;;;28.60;26.00;;;;;;;;1963027;28;3593970;-72
2023/05/14 21:56:42;;;;;;;;;31.25;27.13;;;;;;;;1963193;28;3597131;-72
2023/05/14 21:57:54;;;;;;;;;25.00;22.67;;;;;;;;1964825;28;3573179;-72
2023/05/14 21:59:05;;;;;;;;;30.80;25.60;;;;;;;;1959419;28;3587748;-72
2023/05/14 22:00:22;;;;;;;;;31.40;30.20;;;;;;;;1953354;28;2847329;-72
2023/05/14 22:01:33;;;;;;;;;29.67;25.33;;;;;;;;1964150;28;3599237;-72
2023/05/14 22:02:45;;;;;;;;;23.80;23.80;;;;;;;;1972732;28;3578345;-73
2023/05/14 22:03:58;;;;;;;;;28.13;26.50;;;;;;;;1967998;28;3596053;-72
2023/05/14 22:05:10;;;;;;;;;23.00;22.33;;;;;;;;1963749;28;3583641;-72
2023/05/14 22:06:23;;;;;;;;;32.00;28.00;;;;;;;;1964779;28;3596042;-72
2023/05/14 22:07:34;;;;;;;;;27.50;25.50;;;;;;;;1967216;28;2847208;-72
2023/05/14 22:08:47;;;;;;;;;34.25;26.75;;;;;;;;1960509;28;3621128;-72
2023/05/14 22:10:00;;;;;;;;;30.20;27.20;;;;;;;;1970328;28;3593990;-72
2023/05/14 22:11:11;;;;;;;;;31.40;29.00;;;;;;;;1967989;28;3597163;-72
2023/05/14 22:12:23;;;;;;;;;33.80;29.80;;;;;;;;1968235;28;3584604;-72
2023/05/14 22:13:39;;;;;;;;;32.00;28.13;;;;;;;;1963807;28;3592237;-72
2023/05/14 22:14:50;;;;;;;;;33.00;28.50;;;;;;;;1965905;28;2859664;-72
2023/05/14 22:16:03;;;;;;;;;36.00;30.63;;;;;;;;1962456;28;3603440;-72
2023/05/14 22:17:14;;;;;;;;;34.50;27.50;;;;;;;;1964624;28;2864837;-72
2023/05/14 22:18:26;;;;;;;;;30.40;27.60;;;;;;;;1969172;28;3584715;-72
2023/05/14 22:19:38;;;;;;;;;28.40;25.80;;;;;;;;1966382;28;3581475;-72
2023/05/14 22:20:49;;;;;;;;;25.40;22.40;;;;;;;;1952692;28;2846144;-72
2023/05/14 22:21:59;;;;;;;;;31.00;28.00;;;;;;;;1972479;28;2854392;-72
2023/05/14 22:23:11;;;;;;;;;26.00;24.80;;;;;;;;1969989;28;3580424;-71
2023/05/14 22:24:23;;;;;;;;;30.80;26.60;;;;;;;;1962769;28;3604347;-71
2023/05/14 22:25:37;;;;;;;;;31.38;26.00;;;;;;;;1968570;28;3596057;-71
2023/05/14 22:26:47;;;;;;;;;36.00;29.00;;;;;;;;1966995;28;2852716;-71
2023/05/14 22:27:59;;;;;;;;;34.20;30.40;;;;;;;;1970023;28;3607500;-71
2023/05/14 22:29:12;;;;;;;;;27.50;25.50;;;;;;;;1990261;28;3596056;-71
2023/05/14 22:30:23;;;;;;;;;36.00;30.50;;;;;;;;1967231;28;2851300;-71
2023/05/14 22:31:35;;;;;;;;;31.40;27.00;;;;;;;;1968644;28;3595004;-72
2023/05/14 22:32:47;;;;;;;;;40.00;30.40;;;;;;;;1965346;28;3618940;-71
2023/05/14 22:33:59;;;;;;;;;30.40;28.80;;;;;;;;1971128;28;3592943;-71
2023/05/14 22:35:11;;;;;;;;;34.40;29.80;;;;;;;;1971211;28;3599232;-71
2023/05/14 22:36:23;;;;;;;;;27.00;25.00;;;;;;;;1953243;28;3596447;-71
2023/05/14 22:37:34;;;;;;;;;35.60;29.20;;;;;;;;1954861;28;2848242;-72
2023/05/14 22:38:45;;;;;;;;;33.40;29.40;;;;;;;;1973956;28;3583525;-71
2023/05/14 22:39:57;;;;;;;;;40.60;34.20;;;;;;;;1995074;28;3590162;-71
2023/05/14 22:41:09;;;;;;;;;31.20;28.60;;;;;;;;1970075;28;3596034;-71
2023/05/14 22:42:21;;;;;;;;;32.33;29.33;;;;;;;;1960383;28;3579490;-71
2023/05/14 22:43:32;;;;;;;;;34.80;31.60;;;;;;;;1953036;28;2844141;-71
2023/05/14 22:44:44;;;;;;;;;31.40;27.60;;;;;;;;1993694;28;3592892;-71
2023/05/14 22:45:54;;;;;;;;;27.80;23.80;;;;;;;;1977222;28;2844077;-71
2023/05/14 22:47:06;;;;;;;;;29.33;24.67;;;;;;;;1971463;28;3591875;-71
2023/05/14 22:48:19;;;;;;;;;27.00;25.29;;;;;;;;1967760;28;3589108;-71
2023/05/14 22:49:31;;;;;;;;;24.60;22.80;;;;;;;;1971191;28;3586667;-72